Terminal Aerodrome Forecast
Issued by NWS Burlington, VT

Home | Current Version | Previous Version | Text Only | Print | Product List | Glossary On
Versions: 1 2 3 4 5 6 7 8 9 10 11 12 13 14 15 16 17 18 19 20 21 22 23
000
FTUS41 KBTV 300531
TAFBTV
TAF
KBTV 300531Z 3006/3106 15003KT P6SM SKC
     FM301200 18009KT P6SM SKC
     FM301700 18010KT 6SM -TSRA BR SCT050CB BKN120
     FM301900 19007KT P6SM SCT070 SCT250
     FM310000 18005KT P6SM SKC=

USA.gov is the U.S. government's official web portal to all federal, state and local government web resources and services.